sensor_id;sensor_type;location;lat;lon;timestamp;P1;durP1;ratioP1;P2;durP2;ratioP2
6109;SDS011;3085;49.444;11.054;2022-10-15T00:01:30;7.40;;;2.13;;
6109;SDS011;3085;49.444;11.054;2022-10-15T00:03:58;4.20;;;2.30;;
6109;SDS011;3085;49.444;11.054;2022-10-15T00:06:25;5.60;;;2.60;;
6109;SDS011;3085;49.444;11.054;2022-10-15T00:08:52;21.50;;;2.70;;
6109;SDS011;3085;49.444;11.054;2022-10-15T00:11:21;4.27;;;2.13;;
6109;SDS011;3085;49.444;11.054;2022-10-15T00:13:51;3.77;;;2.50;;
6109;SDS011;3085;49.444;11.054;2022-10-15T00:16:20;8.10;;;2.90;;
6109;SDS011;3085;49.444;11.054;2022-10-15T00:18:49;3.23;;;2.30;;
6109;SDS011;3085;49.444;11.054;2022-10-15T00:21:18;6.60;;;3.00;;
6109;SDS011;3085;49.444;11.054;2022-10-15T00:23:46;4.17;;;1.80;;
6109;SDS011;3085;49.444;11.054;2022-10-15T00:26:14;3.50;;;2.20;;
6109;SDS011;3085;49.444;11.054;2022-10-15T00:28:43;5.30;;;2.83;;
6109;SDS011;3085;49.444;11.054;2022-10-15T00:31:11;4.43;;;2.30;;
6109;SDS011;3085;49.444;11.054;2022-10-15T00:33:40;6.97;;;2.60;;
6109;SDS011;3085;49.444;11.054;2022-10-15T00:36:10;4.33;;;2.43;;
6109;SDS011;3085;49.444;11.054;2022-10-15T00:38:39;3.83;;;1.93;;
6109;SDS011;3085;49.444;11.054;2022-10-15T00:41:06;3.90;;;2.43;;
6109;SDS011;3085;49.444;11.054;2022-10-15T00:43:38;6.90;;;2.33;;
6109;SDS011;3085;49.444;11.054;2022-10-15T00:46:14;3.20;;;2.13;;
6109;SDS011;3085;49.444;11.054;2022-10-15T00:48:43;4.73;;;2.80;;
6109;SDS011;3085;49.444;11.054;2022-10-15T00:51:13;4.80;;;3.10;;
6109;SDS011;3085;49.444;11.054;2022-10-15T00:53:42;5.43;;;3.20;;
6109;SDS011;3085;49.444;11.054;2022-10-15T00:56:10;7.70;;;2.53;;
6109;SDS011;3085;49.444;11.054;2022-10-15T00:58:38;4.50;;;2.60;;
6109;SDS011;3085;49.444;11.054;2022-10-15T01:01:05;4.57;;;2.60;;
6109;SDS011;3085;49.444;11.054;2022-10-15T01:03:34;5.00;;;2.37;;
6109;SDS011;3085;49.444;11.054;2022-10-15T01:06:01;6.00;;;2.70;;
6109;SDS011;3085;49.444;11.054;2022-10-15T01:08:29;5.30;;;2.80;;
6109;SDS011;3085;49.444;11.054;2022-10-15T01:10:59;8.73;;;3.10;;
6109;SDS011;3085;49.444;11.054;2022-10-15T01:13:36;5.47;;;2.40;;
6109;SDS011;3085;49.444;11.054;2022-10-15T01:16:10;6.73;;;2.43;;
6109;SDS011;3085;49.444;11.054;2022-10-15T01:18:45;5.23;;;2.37;;
6109;SDS011;3085;49.444;11.054;2022-10-15T01:21:18;3.67;;;2.63;;
6109;SDS011;3085;49.444;11.054;2022-10-15T01:27:13;5.23;;;2.70;;
6109;SDS011;3085;49.444;11.054;2022-10-15T01:32:49;4.97;;;2.30;;
6109;SDS011;3085;49.444;11.054;2022-10-15T01:35:26;4.60;;;2.00;;
6109;SDS011;3085;49.444;11.054;2022-10-15T01:37:59;3.20;;;2.13;;
6109;SDS011;3085;49.444;11.054;2022-10-15T01:40:34;2.70;;;1.90;;
6109;SDS011;3085;49.444;11.054;2022-10-15T01:43:08;2.93;;;1.97;;
6109;SDS011;3085;49.444;11.054;2022-10-15T01:45:40;3.53;;;2.00;;
6109;SDS011;3085;49.444;11.054;2022-10-15T01:48:11;4.73;;;2.97;;
6109;SDS011;3085;49.444;11.054;2022-10-15T01:50:39;4.57;;;2.57;;
6109;SDS011;3085;49.444;11.054;2022-10-15T01:53:10;5.07;;;2.10;;
6109;SDS011;3085;49.444;11.054;2022-10-15T01:55:41;4.50;;;2.20;;
6109;SDS011;3085;49.444;11.054;2022-10-15T01:58:10;3.30;;;1.87;;
6109;SDS011;3085;49.444;11.054;2022-10-15T02:00:40;2.40;;;1.47;;
6109;SDS011;3085;49.444;11.054;2022-10-15T02:03:08;4.47;;;2.00;;
6109;SDS011;3085;49.444;11.054;2022-10-15T02:05:36;5.23;;;2.03;;
6109;SDS011;3085;49.444;11.054;2022-10-15T02:08:09;6.47;;;2.13;;
6109;SDS011;3085;49.444;11.054;2022-10-15T02:10:46;4.03;;;2.40;;
6109;SDS011;3085;49.444;11.054;2022-10-15T02:13:20;3.70;;;1.90;;
6109;SDS011;3085;49.444;11.054;2022-10-15T02:15:58;3.03;;;2.07;;
6109;SDS011;3085;49.444;11.054;2022-10-15T02:18:33;4.23;;;1.80;;
6109;SDS011;3085;49.444;11.054;2022-10-15T02:21:06;2.50;;;1.63;;
6109;SDS011;3085;49.444;11.054;2022-10-15T02:23:44;5.20;;;2.30;;
6109;SDS011;3085;49.444;11.054;2022-10-15T02:26:16;4.00;;;1.90;;
6109;SDS011;3085;49.444;11.054;2022-10-15T02:28:47;2.23;;;1.63;;
6109;SDS011;3085;49.444;11.054;2022-10-15T02:31:19;3.07;;;1.90;;
6109;SDS011;3085;49.444;11.054;2022-10-15T02:33:48;2.57;;;1.77;;
6109;SDS011;3085;49.444;11.054;2022-10-15T02:36:17;3.20;;;1.63;;
6109;SDS011;3085;49.444;11.054;2022-10-15T02:38:44;2.67;;;1.50;;
6109;SDS011;3085;49.444;11.054;2022-10-15T02:41:12;2.57;;;1.77;;
6109;SDS011;3085;49.444;11.054;2022-10-15T02:43:41;3.10;;;1.57;;
6109;SDS011;3085;49.444;11.054;2022-10-15T02:46:08;2.17;;;1.50;;
6109;SDS011;3085;49.444;11.054;2022-10-15T02:48:38;3.93;;;1.97;;
6109;SDS011;3085;49.444;11.054;2022-10-15T02:51:04;2.53;;;1.50;;
6109;SDS011;3085;49.444;11.054;2022-10-15T02:53:31;1.93;;;1.27;;
6109;SDS011;3085;49.444;11.054;2022-10-15T02:55:58;4.20;;;2.20;;
6109;SDS011;3085;49.444;11.054;2022-10-15T02:58:25;1.73;;;1.20;;
6109;SDS011;3085;49.444;11.054;2022-10-15T03:00:53;2.43;;;1.20;;
6109;SDS011;3085;49.444;11.054;2022-10-15T03:03:20;1.60;;;1.20;;
6109;SDS011;3085;49.444;11.054;2022-10-15T03:05:48;2.77;;;1.50;;
6109;SDS011;3085;49.444;11.054;2022-10-15T03:08:15;4.90;;;2.93;;
6109;SDS011;3085;49.444;11.054;2022-10-15T03:10:42;5.70;;;1.57;;
6109;SDS011;3085;49.444;11.054;2022-10-15T03:13:09;1.80;;;1.30;;
6109;SDS011;3085;49.444;11.054;2022-10-15T03:15:36;2.43;;;1.30;;
6109;SDS011;3085;49.444;11.054;2022-10-15T03:18:03;2.50;;;1.60;;
6109;SDS011;3085;49.444;11.054;2022-10-15T03:20:30;4.70;;;1.60;;
6109;SDS011;3085;49.444;11.054;2022-10-15T03:22:59;4.20;;;1.50;;
6109;SDS011;3085;49.444;11.054;2022-10-15T03:25:26;2.00;;;1.30;;
6109;SDS011;3085;49.444;11.054;2022-10-15T03:27:52;2.10;;;1.20;;
6109;SDS011;3085;49.444;11.054;2022-10-15T03:30:21;2.57;;;1.47;;
6109;SDS011;3085;49.444;11.054;2022-10-15T03:32:47;4.83;;;1.50;;
6109;SDS011;3085;49.444;11.054;2022-10-15T03:35:14;3.63;;;1.47;;
6109;SDS011;3085;49.444;11.054;2022-10-15T03:37:41;2.47;;;1.47;;
6109;SDS011;3085;49.444;11.054;2022-10-15T03:40:10;2.37;;;1.60;;
6109;SDS011;3085;49.444;11.054;2022-10-15T03:42:37;2.50;;;1.80;;
6109;SDS011;3085;49.444;11.054;2022-10-15T03:45:04;2.57;;;1.60;;
6109;SDS011;3085;49.444;11.054;2022-10-15T03:47:32;5.27;;;1.37;;
6109;SDS011;3085;49.444;11.054;2022-10-15T03:49:59;1.40;;;1.10;;
6109;SDS011;3085;49.444;11.054;2022-10-15T03:52:25;2.43;;;1.37;;
6109;SDS011;3085;49.444;11.054;2022-10-15T03:54:52;2.43;;;1.43;;
6109;SDS011;3085;49.444;11.054;2022-10-15T03:57:20;3.93;;;1.60;;
6109;SDS011;3085;49.444;11.054;2022-10-15T03:59:47;2.53;;;1.17;;
6109;SDS011;3085;49.444;11.054;2022-10-15T04:02:14;13.33;;;2.20;;
6109;SDS011;3085;49.444;11.054;2022-10-15T04:04:41;2.80;;;1.40;;
6109;SDS011;3085;49.444;11.054;2022-10-15T04:07:07;1.80;;;1.20;;
6109;SDS011;3085;49.444;11.054;2022-10-15T04:09:34;2.37;;;1.63;;
6109;SDS011;3085;49.444;11.054;2022-10-15T04:12:01;1.30;;;0.90;;
6109;SDS011;3085;49.444;11.054;2022-10-15T04:14:29;1.63;;;0.90;;
6109;SDS011;3085;49.444;11.054;2022-10-15T04:16:56;1.50;;;0.90;;
6109;SDS011;3085;49.444;11.054;2022-10-15T04:19:23;2.10;;;1.40;;
6109;SDS011;3085;49.444;11.054;2022-10-15T04:21:50;3.17;;;1.53;;
6109;SDS011;3085;49.444;11.054;2022-10-15T04:24:17;2.80;;;1.77;;
6109;SDS011;3085;49.444;11.054;2022-10-15T04:26:43;1.93;;;1.23;;
6109;SDS011;3085;49.444;11.054;2022-10-15T04:29:10;1.80;;;1.20;;
6109;SDS011;3085;49.444;11.054;2022-10-15T04:31:38;2.83;;;1.40;;
6109;SDS011;3085;49.444;11.054;2022-10-15T04:34:06;2.27;;;1.03;;
6109;SDS011;3085;49.444;11.054;2022-10-15T04:36:33;1.87;;;1.23;;
6109;SDS011;3085;49.444;11.054;2022-10-15T04:39:00;1.57;;;1.13;;
6109;SDS011;3085;49.444;11.054;2022-10-15T04:41:27;1.50;;;1.10;;
6109;SDS011;3085;49.444;11.054;2022-10-15T04:43:55;1.80;;;1.20;;
6109;SDS011;3085;49.444;11.054;2022-10-15T04:46:21;1.83;;;1.00;;
6109;SDS011;3085;49.444;11.054;2022-10-15T04:48:51;2.73;;;1.77;;
6109;SDS011;3085;49.444;11.054;2022-10-15T04:51:21;1.67;;;1.00;;
6109;SDS011;3085;49.444;11.054;2022-10-15T04:53:49;1.27;;;0.93;;
6109;SDS011;3085;49.444;11.054;2022-10-15T04:56:18;3.57;;;1.50;;
6109;SDS011;3085;49.444;11.054;2022-10-15T04:58:47;2.33;;;1.80;;
6109;SDS011;3085;49.444;11.054;2022-10-15T05:01:14;1.77;;;1.13;;
6109;SDS011;3085;49.444;11.054;2022-10-15T05:03:43;1.77;;;1.03;;
6109;SDS011;3085;49.444;11.054;2022-10-15T05:06:13;2.67;;;1.30;;
6109;SDS011;3085;49.444;11.054;2022-10-15T05:08:41;2.67;;;1.27;;
6109;SDS011;3085;49.444;11.054;2022-10-15T05:11:09;1.47;;;1.03;;
6109;SDS011;3085;49.444;11.054;2022-10-15T05:13:37;3.30;;;1.20;;
6109;SDS011;3085;49.444;11.054;2022-10-15T05:16:07;1.97;;;1.10;;
6109;SDS011;3085;49.444;11.054;2022-10-15T05:18:35;1.80;;;1.10;;
6109;SDS011;3085;49.444;11.054;2022-10-15T05:21:03;2.37;;;1.33;;
6109;SDS011;3085;49.444;11.054;2022-10-15T05:23:32;1.87;;;1.10;;
6109;SDS011;3085;49.444;11.054;2022-10-15T05:25:59;2.33;;;1.37;;
6109;SDS011;3085;49.444;11.054;2022-10-15T05:28:27;7.47;;;1.30;;
6109;SDS011;3085;49.444;11.054;2022-10-15T05:30:54;2.30;;;1.40;;
6109;SDS011;3085;49.444;11.054;2022-10-15T05:33:21;1.87;;;1.00;;
6109;SDS011;3085;49.444;11.054;2022-10-15T05:35:48;1.53;;;1.10;;
6109;SDS011;3085;49.444;11.054;2022-10-15T05:38:14;1.70;;;1.20;;
6109;SDS011;3085;49.444;11.054;2022-10-15T05:40:47;3.10;;;1.50;;
6109;SDS011;3085;49.444;11.054;2022-10-15T05:43:14;6.60;;;1.40;;
6109;SDS011;3085;49.444;11.054;2022-10-15T05:45:41;3.00;;;1.73;;
6109;SDS011;3085;49.444;11.054;2022-10-15T05:48:08;2.10;;;1.27;;
6109;SDS011;3085;49.444;11.054;2022-10-15T05:50:35;4.90;;;1.33;;
6109;SDS011;3085;49.444;11.054;2022-10-15T05:53:02;7.73;;;1.30;;
6109;SDS011;3085;49.444;11.054;2022-10-15T05:55:29;1.57;;;0.93;;
6109;SDS011;3085;49.444;11.054;2022-10-15T05:58:00;2.90;;;1.27;;
6109;SDS011;3085;49.444;11.054;2022-10-15T06:00:28;1.97;;;1.30;;
6109;SDS011;3085;49.444;11.054;2022-10-15T06:02:55;2.03;;;0.90;;
6109;SDS011;3085;49.444;11.054;2022-10-15T06:05:21;1.80;;;0.90;;
6109;SDS011;3085;49.444;11.054;2022-10-15T06:07:48;2.33;;;1.33;;
6109;SDS011;3085;49.444;11.054;2022-10-15T06:10:15;1.60;;;1.00;;
6109;SDS011;3085;49.444;11.054;2022-10-15T06:12:47;3.07;;;1.00;;
6109;SDS011;3085;49.444;11.054;2022-10-15T06:15:16;1.47;;;1.00;;
6109;SDS011;3085;49.444;11.054;2022-10-15T06:17:43;2.47;;;1.33;;
6109;SDS011;3085;49.444;11.054;2022-10-15T06:20:10;2.50;;;1.20;;
6109;SDS011;3085;49.444;11.054;2022-10-15T06:22:37;1.87;;;1.23;;
6109;SDS011;3085;49.444;11.054;2022-10-15T06:25:05;1.60;;;1.20;;
6109;SDS011;3085;49.444;11.054;2022-10-15T06:27:32;2.37;;;1.40;;
6109;SDS011;3085;49.444;11.054;2022-10-15T06:29:59;2.03;;;1.30;;
6109;SDS011;3085;49.444;11.054;2022-10-15T06:32:27;2.37;;;1.30;;
6109;SDS011;3085;49.444;11.054;2022-10-15T06:34:54;1.47;;;1.00;;
6109;SDS011;3085;49.444;11.054;2022-10-15T06:37:21;4.23;;;1.90;;
6109;SDS011;3085;49.444;11.054;2022-10-15T06:39:48;1.87;;;1.23;;
6109;SDS011;3085;49.444;11.054;2022-10-15T06:42:15;5.47;;;1.50;;
6109;SDS011;3085;49.444;11.054;2022-10-15T06:44:42;2.43;;;1.20;;
6109;SDS011;3085;49.444;11.054;2022-10-15T06:47:09;2.53;;;1.60;;
6109;SDS011;3085;49.444;11.054;2022-10-15T06:49:37;3.07;;;1.27;;
6109;SDS011;3085;49.444;11.054;2022-10-15T06:52:04;1.50;;;1.20;;
6109;SDS011;3085;49.444;11.054;2022-10-15T06:54:31;6.70;;;1.43;;
6109;SDS011;3085;49.444;11.054;2022-10-15T06:56:57;4.23;;;1.90;;
6109;SDS011;3085;49.444;11.054;2022-10-15T06:59:24;3.80;;;1.73;;
6109;SDS011;3085;49.444;11.054;2022-10-15T07:01:51;3.10;;;1.70;;
6109;SDS011;3085;49.444;11.054;2022-10-15T07:04:18;2.27;;;1.20;;
6109;SDS011;3085;49.444;11.054;2022-10-15T07:06:46;4.07;;;1.40;;
6109;SDS011;3085;49.444;11.054;2022-10-15T07:09:13;1.60;;;1.20;;
6109;SDS011;3085;49.444;11.054;2022-10-15T07:11:40;9.43;;;1.60;;
6109;SDS011;3085;49.444;11.054;2022-10-15T07:14:07;2.00;;;1.33;;
6109;SDS011;3085;49.444;11.054;2022-10-15T07:16:34;3.40;;;1.97;;
6109;SDS011;3085;49.444;11.054;2022-10-15T07:19:01;10.47;;;1.80;;
6109;SDS011;3085;49.444;11.054;2022-10-15T07:21:28;4.37;;;1.77;;
6109;SDS011;3085;49.444;11.054;2022-10-15T07:23:56;1.90;;;1.20;;
6109;SDS011;3085;49.444;11.054;2022-10-15T07:26:24;4.63;;;2.03;;
6109;SDS011;3085;49.444;11.054;2022-10-15T07:28:53;1.83;;;1.27;;
6109;SDS011;3085;49.444;11.054;2022-10-15T07:31:20;3.57;;;2.00;;
6109;SDS011;3085;49.444;11.054;2022-10-15T07:33:47;2.13;;;1.20;;
6109;SDS011;3085;49.444;11.054;2022-10-15T07:36:14;2.40;;;1.40;;
6109;SDS011;3085;49.444;11.054;2022-10-15T07:38:41;3.50;;;1.57;;
6109;SDS011;3085;49.444;11.054;2022-10-15T07:41:09;2.10;;;1.43;;
6109;SDS011;3085;49.444;11.054;2022-10-15T07:43:36;2.30;;;1.40;;
6109;SDS011;3085;49.444;11.054;2022-10-15T07:46:04;1.73;;;1.13;;
6109;SDS011;3085;49.444;11.054;2022-10-15T07:48:31;2.63;;;1.70;;
6109;SDS011;3085;49.444;11.054;2022-10-15T07:50:58;4.20;;;1.50;;
6109;SDS011;3085;49.444;11.054;2022-10-15T07:53:26;4.87;;;1.90;;
6109;SDS011;3085;49.444;11.054;2022-10-15T07:55:55;4.53;;;1.27;;
6109;SDS011;3085;49.444;11.054;2022-10-15T07:58:25;1.70;;;1.20;;
6109;SDS011;3085;49.444;11.054;2022-10-15T08:00:54;3.10;;;1.43;;
6109;SDS011;3085;49.444;11.054;2022-10-15T08:03:21;2.50;;;1.50;;
6109;SDS011;3085;49.444;11.054;2022-10-15T08:05:47;2.03;;;1.30;;
6109;SDS011;3085;49.444;11.054;2022-10-15T08:08:17;2.97;;;1.13;;
6109;SDS011;3085;49.444;11.054;2022-10-15T08:10:44;1.83;;;1.00;;
6109;SDS011;3085;49.444;11.054;2022-10-15T08:13:10;1.93;;;1.03;;
6109;SDS011;3085;49.444;11.054;2022-10-15T08:15:39;2.53;;;1.50;;
6109;SDS011;3085;49.444;11.054;2022-10-15T08:18:06;2.83;;;1.43;;
6109;SDS011;3085;49.444;11.054;2022-10-15T08:20:35;1.50;;;1.00;;
6109;SDS011;3085;49.444;11.054;2022-10-15T08:23:02;1.40;;;0.80;;
6109;SDS011;3085;49.444;11.054;2022-10-15T08:25:29;1.40;;;0.90;;
6109;SDS011;3085;49.444;11.054;2022-10-15T08:27:56;1.50;;;0.87;;
6109;SDS011;3085;49.444;11.054;2022-10-15T08:30:23;1.40;;;0.80;;
6109;SDS011;3085;49.444;11.054;2022-10-15T08:32:52;6.10;;;1.07;;
6109;SDS011;3085;49.444;11.054;2022-10-15T08:35:19;2.77;;;0.80;;
6109;SDS011;3085;49.444;11.054;2022-10-15T08:37:46;1.50;;;1.03;;
6109;SDS011;3085;49.444;11.054;2022-10-15T08:40:13;1.40;;;0.90;;
6109;SDS011;3085;49.444;11.054;2022-10-15T08:42:42;1.50;;;0.90;;
6109;SDS011;3085;49.444;11.054;2022-10-15T08:45:12;1.70;;;1.00;;
6109;SDS011;3085;49.444;11.054;2022-10-15T08:47:42;1.40;;;0.90;;
6109;SDS011;3085;49.444;11.054;2022-10-15T08:50:16;1.57;;;0.93;;
6109;SDS011;3085;49.444;11.054;2022-10-15T08:52:50;2.80;;;0.83;;
6109;SDS011;3085;49.444;11.054;2022-10-15T08:55:20;1.50;;;0.80;;
6109;SDS011;3085;49.444;11.054;2022-10-15T08:57:48;1.43;;;0.90;;
6109;SDS011;3085;49.444;11.054;2022-10-15T09:00:23;2.43;;;0.90;;
6109;SDS011;3085;49.444;11.054;2022-10-15T09:02:56;5.43;;;1.10;;
6109;SDS011;3085;49.444;11.054;2022-10-15T09:05:33;1.80;;;0.90;;
6109;SDS011;3085;49.444;11.054;2022-10-15T09:08:11;2.23;;;1.13;;
6109;SDS011;3085;49.444;11.054;2022-10-15T09:10:46;1.90;;;1.30;;
6109;SDS011;3085;49.444;11.054;2022-10-15T09:13:16;1.40;;;0.83;;
6109;SDS011;3085;49.444;11.054;2022-10-15T09:15:49;1.47;;;1.00;;
6109;SDS011;3085;49.444;11.054;2022-10-15T09:18:19;2.13;;;1.17;;
6109;SDS011;3085;49.444;11.054;2022-10-15T09:20:49;10.57;;;1.33;;
6109;SDS011;3085;49.444;11.054;2022-10-15T09:23:19;1.63;;;1.00;;
6109;SDS011;3085;49.444;11.054;2022-10-15T09:25:50;2.10;;;0.90;;
6109;SDS011;3085;49.444;11.054;2022-10-15T09:28:24;1.90;;;0.93;;
6109;SDS011;3085;49.444;11.054;2022-10-15T09:30:56;1.60;;;1.20;;
6109;SDS011;3085;49.444;11.054;2022-10-15T09:33:29;2.33;;;1.07;;
6109;SDS011;3085;49.444;11.054;2022-10-15T09:36:05;2.33;;;1.13;;
6109;SDS011;3085;49.444;11.054;2022-10-15T09:38:45;1.20;;;0.67;;
6109;SDS011;3085;49.444;11.054;2022-10-15T09:41:20;1.67;;;0.97;;
6109;SDS011;3085;49.444;11.054;2022-10-15T09:43:56;1.20;;;0.80;;
6109;SDS011;3085;49.444;11.054;2022-10-15T09:46:25;1.60;;;1.00;;
6109;SDS011;3085;49.444;11.054;2022-10-15T09:48:54;2.63;;;1.20;;
6109;SDS011;3085;49.444;11.054;2022-10-15T09:51:31;1.20;;;0.73;;
6109;SDS011;3085;49.444;11.054;2022-10-15T09:54:02;2.40;;;1.50;;
6109;SDS011;3085;49.444;11.054;2022-10-15T09:56:35;1.60;;;0.90;;
6109;SDS011;3085;49.444;11.054;2022-10-15T09:59:04;1.50;;;1.00;;
6109;SDS011;3085;49.444;11.054;2022-10-15T10:01:32;1.53;;;0.90;;
6109;SDS011;3085;49.444;11.054;2022-10-15T10:04:10;2.50;;;0.90;;
6109;SDS011;3085;49.444;11.054;2022-10-15T10:06:43;1.63;;;0.90;;
6109;SDS011;3085;49.444;11.054;2022-10-15T10:09:14;1.70;;;0.97;;
6109;SDS011;3085;49.444;11.054;2022-10-15T10:11:45;2.10;;;1.30;;
6109;SDS011;3085;49.444;11.054;2022-10-15T10:14:21;1.83;;;0.90;;
6109;SDS011;3085;49.444;11.054;2022-10-15T10:17:03;1.50;;;1.00;;
6109;SDS011;3085;49.444;11.054;2022-10-15T10:19:42;3.30;;;1.07;;
6109;SDS011;3085;49.444;11.054;2022-10-15T10:22:15;2.70;;;1.90;;
6109;SDS011;3085;49.444;11.054;2022-10-15T10:24:44;1.80;;;1.17;;
6109;SDS011;3085;49.444;11.054;2022-10-15T10:27:16;2.17;;;1.23;;
6109;SDS011;3085;49.444;11.054;2022-10-15T10:29:51;2.00;;;1.20;;
6109;SDS011;3085;49.444;11.054;2022-10-15T10:32:22;3.50;;;1.20;;
6109;SDS011;3085;49.444;11.054;2022-10-15T10:34:52;2.50;;;1.37;;
6109;SDS011;3085;49.444;11.054;2022-10-15T10:37:21;3.20;;;1.10;;
6109;SDS011;3085;49.444;11.054;2022-10-15T10:39:51;2.17;;;1.20;;
6109;SDS011;3085;49.444;11.054;2022-10-15T10:42:25;2.23;;;1.30;;
6109;SDS011;3085;49.444;11.054;2022-10-15T10:45:05;3.03;;;1.50;;
6109;SDS011;3085;49.444;11.054;2022-10-15T10:47:40;1.50;;;1.00;;
6109;SDS011;3085;49.444;11.054;2022-10-15T10:50:24;2.17;;;1.97;;
6109;SDS011;3085;49.444;11.054;2022-10-15T10:52:57;1.80;;;1.20;;
6109;SDS011;3085;49.444;11.054;2022-10-15T10:55:39;1.40;;;1.00;;
6109;SDS011;3085;49.444;11.054;2022-10-15T10:58:08;1.60;;;1.10;;
6109;SDS011;3085;49.444;11.054;2022-10-15T11:00:43;1.60;;;1.03;;
6109;SDS011;3085;49.444;11.054;2022-10-15T11:03:19;2.03;;;1.10;;
6109;SDS011;3085;49.444;11.054;2022-10-15T11:05:48;1.97;;;1.37;;
6109;SDS011;3085;49.444;11.054;2022-10-15T11:08:19;5.53;;;1.13;;
6109;SDS011;3085;49.444;11.054;2022-10-15T11:10:55;1.60;;;1.00;;
6109;SDS011;3085;49.444;11.054;2022-10-15T11:13:33;1.67;;;0.90;;
6109;SDS011;3085;49.444;11.054;2022-10-15T11:16:14;1.60;;;0.80;;
6109;SDS011;3085;49.444;11.054;2022-10-15T11:18:55;1.50;;;1.00;;
6109;SDS011;3085;49.444;11.054;2022-10-15T11:21:38;2.33;;;1.07;;
6109;SDS011;3085;49.444;11.054;2022-10-15T11:24:15;1.30;;;0.80;;
6109;SDS011;3085;49.444;11.054;2022-10-15T11:26:59;1.60;;;0.97;;
6109;SDS011;3085;49.444;11.054;2022-10-15T11:29:34;2.57;;;1.20;;
6109;SDS011;3085;49.444;11.054;2022-10-15T11:32:09;2.00;;;0.90;;
6109;SDS011;3085;49.444;11.054;2022-10-15T11:34:49;1.30;;;0.80;;
6109;SDS011;3085;49.444;11.054;2022-10-15T11:37:35;1.30;;;0.80;;
6109;SDS011;3085;49.444;11.054;2022-10-15T11:40:16;2.00;;;1.00;;
6109;SDS011;3085;49.444;11.054;2022-10-15T11:42:50;2.47;;;1.23;;
6109;SDS011;3085;49.444;11.054;2022-10-15T11:45:29;1.73;;;0.90;;
6109;SDS011;3085;49.444;11.054;2022-10-15T11:48:08;1.67;;;1.00;;
6109;SDS011;3085;49.444;11.054;2022-10-15T11:50:42;1.40;;;0.80;;
6109;SDS011;3085;49.444;11.054;2022-10-15T11:56:25;1.40;;;0.93;;
6109;SDS011;3085;49.444;11.054;2022-10-15T11:58:55;1.47;;;0.90;;
6109;SDS011;3085;49.444;11.054;2022-10-15T12:01:27;1.57;;;0.97;;
6109;SDS011;3085;49.444;11.054;2022-10-15T12:03:58;2.67;;;1.43;;
6109;SDS011;3085;49.444;11.054;2022-10-15T12:06:29;2.10;;;0.90;;
6109;SDS011;3085;49.444;11.054;2022-10-15T12:09:01;1.93;;;0.90;;
6109;SDS011;3085;49.444;11.054;2022-10-15T12:11:34;15.33;;;1.20;;
6109;SDS011;3085;49.444;11.054;2022-10-15T12:14:12;1.67;;;0.90;;
6109;SDS011;3085;49.444;11.054;2022-10-15T12:16:49;1.33;;;0.97;;
6109;SDS011;3085;49.444;11.054;2022-10-15T12:19:25;1.20;;;0.80;;
6109;SDS011;3085;49.444;11.054;2022-10-15T12:22:02;1.40;;;0.80;;
6109;SDS011;3085;49.444;11.054;2022-10-15T12:24:51;2.73;;;0.90;;
6109;SDS011;3085;49.444;11.054;2022-10-15T12:27:24;1.87;;;1.00;;
6109;SDS011;3085;49.444;11.054;2022-10-15T12:30:11;1.73;;;0.90;;
6109;SDS011;3085;49.444;11.054;2022-10-15T12:32:47;2.57;;;1.00;;
6109;SDS011;3085;49.444;11.054;2022-10-15T12:35:24;1.50;;;0.73;;
6109;SDS011;3085;49.444;11.054;2022-10-15T12:38:09;2.20;;;0.90;;
6109;SDS011;3085;49.444;11.054;2022-10-15T12:41:03;4.10;;;1.00;;
6109;SDS011;3085;49.444;11.054;2022-10-15T12:43:40;2.30;;;1.13;;
6109;SDS011;3085;49.444;11.054;2022-10-15T12:46:10;1.70;;;1.07;;
6109;SDS011;3085;49.444;11.054;2022-10-15T12:48:39;1.90;;;1.03;;
6109;SDS011;3085;49.444;11.054;2022-10-15T12:57:01;3.43;;;1.00;;
6109;SDS011;3085;49.444;11.054;2022-10-15T12:59:54;7.40;;;0.83;;
6109;SDS011;3085;49.444;11.054;2022-10-15T13:02:33;1.43;;;0.83;;
6109;SDS011;3085;49.444;11.054;2022-10-15T13:05:03;2.70;;;1.20;;
6109;SDS011;3085;49.444;11.054;2022-10-15T13:07:33;1.50;;;0.87;;
6109;SDS011;3085;49.444;11.054;2022-10-15T13:10:04;1.40;;;0.80;;
6109;SDS011;3085;49.444;11.054;2022-10-15T13:12:48;1.60;;;0.80;;
6109;SDS011;3085;49.444;11.054;2022-10-15T13:15:20;1.67;;;1.13;;
6109;SDS011;3085;49.444;11.054;2022-10-15T13:17:48;1.57;;;0.90;;
6109;SDS011;3085;49.444;11.054;2022-10-15T13:20:25;1.90;;;1.23;;
6109;SDS011;3085;49.444;11.054;2022-10-15T13:23:06;1.80;;;1.00;;
6109;SDS011;3085;49.444;11.054;2022-10-15T13:25:34;1.53;;;0.90;;
6109;SDS011;3085;49.444;11.054;2022-10-15T13:28:01;1.23;;;0.70;;
6109;SDS011;3085;49.444;11.054;2022-10-15T13:30:48;1.67;;;0.80;;
6109;SDS011;3085;49.444;11.054;2022-10-15T13:33:16;1.70;;;0.90;;
6109;SDS011;3085;49.444;11.054;2022-10-15T13:35:43;3.50;;;1.30;;
6109;SDS011;3085;49.444;11.054;2022-10-15T13:38:13;1.60;;;0.80;;
6109;SDS011;3085;49.444;11.054;2022-10-15T13:40:46;1.77;;;1.00;;
6109;SDS011;3085;49.444;11.054;2022-10-15T13:43:15;2.20;;;1.10;;
6109;SDS011;3085;49.444;11.054;2022-10-15T13:45:45;1.40;;;0.70;;
6109;SDS011;3085;49.444;11.054;2022-10-15T13:48:14;6.50;;;1.10;;
6109;SDS011;3085;49.444;11.054;2022-10-15T13:50:47;2.30;;;1.30;;
6109;SDS011;3085;49.444;11.054;2022-10-15T13:53:19;2.20;;;1.20;;
6109;SDS011;3085;49.444;11.054;2022-10-15T13:55:52;6.10;;;1.87;;
6109;SDS011;3085;49.444;11.054;2022-10-15T13:58:23;2.73;;;1.03;;
6109;SDS011;3085;49.444;11.054;2022-10-15T14:00:52;2.33;;;1.10;;
6109;SDS011;3085;49.444;11.054;2022-10-15T14:03:25;2.60;;;1.00;;
6109;SDS011;3085;49.444;11.054;2022-10-15T14:05:53;1.50;;;0.80;;
6109;SDS011;3085;49.444;11.054;2022-10-15T14:08:25;2.40;;;1.10;;
6109;SDS011;3085;49.444;11.054;2022-10-15T14:10:54;2.20;;;1.00;;
6109;SDS011;3085;49.444;11.054;2022-10-15T14:13:23;3.70;;;1.57;;
6109;SDS011;3085;49.444;11.054;2022-10-15T14:15:53;1.70;;;0.90;;
6109;SDS011;3085;49.444;11.054;2022-10-15T14:18:29;1.60;;;1.00;;
6109;SDS011;3085;49.444;11.054;2022-10-15T14:21:01;7.00;;;1.20;;
6109;SDS011;3085;49.444;11.054;2022-10-15T14:23:29;2.67;;;1.07;;
6109;SDS011;3085;49.444;11.054;2022-10-15T14:25:57;1.23;;;0.80;;
6109;SDS011;3085;49.444;11.054;2022-10-15T14:28:26;1.70;;;0.83;;
6109;SDS011;3085;49.444;11.054;2022-10-15T14:30:54;1.30;;;0.70;;
6109;SDS011;3085;49.444;11.054;2022-10-15T14:36:24;1.73;;;1.00;;
6109;SDS011;3085;49.444;11.054;2022-10-15T14:38:52;2.37;;;1.00;;
6109;SDS011;3085;49.444;11.054;2022-10-15T14:41:25;1.53;;;1.00;;
6109;SDS011;3085;49.444;11.054;2022-10-15T14:44:04;2.17;;;1.20;;
6109;SDS011;3085;49.444;11.054;2022-10-15T14:46:36;1.60;;;0.90;;
6109;SDS011;3085;49.444;11.054;2022-10-15T14:49:15;1.60;;;1.13;;
6109;SDS011;3085;49.444;11.054;2022-10-15T14:51:50;1.93;;;1.00;;
6109;SDS011;3085;49.444;11.054;2022-10-15T14:54:24;1.53;;;1.00;;
6109;SDS011;3085;49.444;11.054;2022-10-15T14:56:56;1.30;;;0.83;;
6109;SDS011;3085;49.444;11.054;2022-10-15T14:59:26;2.60;;;1.40;;
6109;SDS011;3085;49.444;11.054;2022-10-15T15:01:56;2.90;;;1.10;;
6109;SDS011;3085;49.444;11.054;2022-10-15T15:04:33;1.67;;;0.87;;
6109;SDS011;3085;49.444;11.054;2022-10-15T15:07:08;1.83;;;0.90;;
6109;SDS011;3085;49.444;11.054;2022-10-15T15:09:46;2.10;;;1.30;;
6109;SDS011;3085;49.444;11.054;2022-10-15T15:12:17;1.50;;;0.90;;
6109;SDS011;3085;49.444;11.054;2022-10-15T15:14:46;1.73;;;1.10;;
6109;SDS011;3085;49.444;11.054;2022-10-15T15:17:14;1.87;;;1.20;;
6109;SDS011;3085;49.444;11.054;2022-10-15T15:19:44;3.43;;;1.17;;
6109;SDS011;3085;49.444;11.054;2022-10-15T15:22:12;2.33;;;0.90;;
6109;SDS011;3085;49.444;11.054;2022-10-15T15:24:42;10.80;;;1.13;;
6109;SDS011;3085;49.444;11.054;2022-10-15T15:27:13;1.80;;;1.10;;
6109;SDS011;3085;49.444;11.054;2022-10-15T15:29:48;2.50;;;1.47;;
6109;SDS011;3085;49.444;11.054;2022-10-15T15:32:15;1.83;;;1.20;;
6109;SDS011;3085;49.444;11.054;2022-10-15T15:34:42;2.03;;;1.10;;
6109;SDS011;3085;49.444;11.054;2022-10-15T15:37:12;3.10;;;1.07;;
6109;SDS011;3085;49.444;11.054;2022-10-15T15:39:40;2.30;;;1.27;;